createdAt,value
2022-08-19T00:02:01.640Z,12.47
2022-08-19T00:04:33.398Z,13.17
2022-08-19T00:07:01.696Z,12.10
2022-08-19T00:09:30.294Z,13.60
2022-08-19T00:11:59.784Z,13.07
2022-08-19T00:14:28.621Z,11.60
2022-08-19T00:16:58.011Z,13.70
2022-08-19T00:19:26.377Z,11.63
2022-08-19T00:21:55.318Z,10.37
2022-08-19T00:24:23.675Z,11.70
2022-08-19T00:26:51.944Z,11.23
2022-08-19T00:29:25.516Z,10.97
2022-08-19T00:31:56.631Z,11.90
2022-08-19T00:34:28.778Z,10.83
2022-08-19T00:36:57.314Z,12.50
2022-08-19T00:39:25.985Z,12.93
2022-08-19T00:41:54.382Z,10.90
2022-08-19T00:44:26.714Z,13.30
2022-08-19T00:46:58.170Z,11.10
2022-08-19T00:49:32.455Z,10.33
2022-08-19T00:52:03.721Z,12.20
2022-08-19T00:54:33.905Z,13.17
2022-08-19T00:57:03.853Z,9.83
2022-08-19T01:00:00.849Z,11.03
2022-08-19T01:02:20.561Z,11.13
2022-08-19T01:04:50.574Z,9.97
2022-08-19T01:07:19.557Z,11.33
2022-08-19T01:09:48.369Z,9.80
2022-08-19T01:12:17.712Z,10.40
2022-08-19T01:14:46.784Z,9.80
2022-08-19T01:17:16.950Z,13.13
2022-08-19T01:19:47.608Z,10.40
2022-08-19T01:22:33.276Z,9.80
2022-08-19T01:25:02.108Z,10.53
2022-08-19T01:27:42.973Z,9.40
2022-08-19T01:30:15.616Z,9.83
2022-08-19T01:32:44.231Z,9.53
2022-08-19T01:35:13.509Z,9.33
2022-08-19T01:37:48.521Z,10.03
2022-08-19T01:40:17.316Z,9.60
2022-08-19T01:42:45.411Z,9.07
2022-08-19T01:45:13.421Z,9.87
2022-08-19T01:47:41.974Z,13.00
2022-08-19T01:50:12.797Z,13.03
2022-08-19T01:52:42.838Z,11.57
2022-08-19T01:55:15.365Z,10.83
2022-08-19T01:57:47.821Z,11.30
2022-08-19T02:00:18.692Z,9.53
2022-08-19T02:02:46.981Z,10.03
2022-08-19T02:05:15.174Z,14.80
2022-08-19T02:07:43.312Z,11.80
2022-08-19T02:10:17.099Z,9.70
2022-08-19T02:12:45.333Z,12.00
2022-08-19T02:15:14.107Z,10.33
2022-08-19T02:17:42.277Z,10.00
2022-08-19T02:20:11.745Z,13.80
2022-08-19T02:22:42.312Z,11.10
2022-08-19T02:25:13.046Z,13.40
2022-08-19T02:27:41.354Z,10.50
2022-08-19T02:30:14.128Z,11.30
2022-08-19T02:32:44.553Z,11.97
2022-08-19T02:35:15.121Z,18.17
2022-08-19T02:38:01.001Z,10.03
2022-08-19T02:40:34.763Z,12.17
2022-08-19T02:43:03.193Z,10.70
2022-08-19T02:45:34.412Z,11.60
2022-08-19T02:48:03.421Z,12.07
2022-08-19T02:50:39.677Z,12.23
2022-08-19T02:53:08.098Z,11.87
2022-08-19T02:55:45.809Z,13.63
2022-08-19T02:58:15.288Z,19.83
2022-08-19T03:00:47.384Z,13.27
2022-08-19T03:03:15.486Z,13.80
2022-08-19T03:05:48.161Z,12.13
2022-08-19T03:08:26.361Z,10.40
2022-08-19T03:10:55.732Z,12.27
2022-08-19T03:13:24.174Z,15.77
2022-08-19T03:15:52.519Z,11.30
2022-08-19T03:18:20.603Z,13.63
2022-08-19T03:20:55.494Z,11.10
2022-08-19T03:23:24.829Z,11.50
2022-08-19T03:26:02.710Z,14.70
2022-08-19T03:28:50.991Z,14.43
2022-08-19T03:31:43.843Z,13.97
2022-08-19T03:34:15.438Z,10.43
2022-08-19T03:36:43.870Z,11.67
2022-08-19T03:39:12.787Z,12.07
2022-08-19T03:41:46.276Z,12.20
2022-08-19T03:44:18.937Z,11.40
2022-08-19T03:46:48.869Z,11.30
2022-08-19T03:49:18.332Z,16.67
2022-08-19T03:51:48.669Z,13.73
2022-08-19T03:54:21.660Z,14.80
2022-08-19T03:56:52.749Z,11.60
2022-08-19T03:59:23.429Z,15.40
2022-08-19T04:01:51.513Z,11.50
2022-08-19T04:04:20.025Z,10.97
2022-08-19T04:06:48.711Z,11.57
2022-08-19T04:09:17.361Z,12.30
2022-08-19T04:11:48.466Z,12.60
2022-08-19T04:14:21.150Z,11.83
2022-08-19T04:16:50.618Z,12.53
2022-08-19T04:19:20.197Z,13.20
2022-08-19T04:21:50.757Z,13.07
2022-08-19T04:24:19.413Z,14.10
2022-08-19T04:26:48.049Z,19.67
2022-08-19T04:29:23.143Z,12.20
2022-08-19T04:31:51.699Z,12.43
2022-08-19T04:34:23.409Z,11.53
2022-08-19T04:36:52.876Z,12.83
2022-08-19T04:39:24.150Z,11.67
2022-08-19T04:42:09.534Z,14.43
2022-08-19T04:44:46.020Z,12.87
2022-08-19T04:47:14.516Z,14.97
2022-08-19T04:49:42.684Z,11.50
2022-08-19T04:52:10.760Z,14.57
2022-08-19T04:54:39.487Z,11.20
2022-08-19T04:57:10.622Z,14.40
2022-08-19T04:59:41.338Z,12.07
2022-08-19T05:02:10.238Z,12.30
2022-08-19T05:04:40.245Z,14.37
2022-08-19T05:07:09.358Z,11.57
2022-08-19T05:09:58.323Z,13.37
2022-08-19T05:12:28.985Z,12.30
2022-08-19T05:15:00.519Z,11.50
2022-08-19T05:17:33.290Z,15.13
2022-08-19T05:20:24.209Z,12.80
2022-08-19T05:22:53.345Z,17.27
2022-08-19T05:25:22.355Z,12.50
2022-08-19T05:27:50.724Z,15.23
2022-08-19T05:30:24.370Z,14.33
2022-08-19T05:33:10.014Z,16.60
2022-08-19T05:35:38.954Z,13.90
2022-08-19T05:38:08.143Z,17.93
2022-08-19T05:40:37.805Z,13.87
2022-08-19T05:43:07.047Z,15.30
2022-08-19T05:45:40.550Z,14.13
2022-08-19T05:48:08.774Z,13.17
2022-08-19T05:50:38.581Z,17.13
2022-08-19T05:53:06.917Z,12.97
2022-08-19T05:55:35.002Z,14.83
2022-08-19T05:58:03.608Z,14.23
2022-08-19T06:00:32.089Z,14.20
2022-08-19T06:03:11.737Z,11.83
2022-08-19T06:05:50.239Z,12.57
2022-08-19T06:08:33.868Z,12.37
2022-08-19T06:11:15.110Z,15.10
2022-08-19T06:13:43.327Z,12.70
2022-08-19T06:16:11.527Z,11.00
2022-08-19T06:18:40.987Z,13.87
2022-08-19T06:21:09.063Z,14.10
2022-08-19T06:23:37.163Z,13.53
2022-08-19T06:26:05.267Z,11.27
2022-08-19T06:28:34.423Z,14.33
2022-08-19T06:31:08.553Z,16.03
2022-08-19T06:33:36.916Z,14.83
2022-08-19T06:36:06.766Z,15.17
2022-08-19T06:38:35.268Z,18.03
2022-08-19T06:41:07.995Z,15.40
2022-08-19T06:43:38.133Z,14.47
2022-08-19T06:46:16.086Z,14.07
2022-08-19T06:48:45.356Z,18.20
2022-08-19T06:51:19.529Z,16.87
2022-08-19T06:56:19.600Z,20.93
2022-08-19T06:58:47.834Z,26.00
2022-08-19T07:01:16.007Z,18.73
2022-08-19T07:03:44.077Z,17.70
2022-08-19T07:06:43.600Z,22.10
2022-08-19T07:09:06.856Z,18.13
2022-08-19T07:11:35.974Z,21.07
2022-08-19T07:14:04.621Z,19.80
2022-08-19T07:16:32.792Z,20.57
2022-08-19T07:19:12.972Z,21.83
2022-08-19T07:21:47.421Z,24.87
2022-08-19T07:24:16.150Z,21.53
2022-08-19T07:26:45.601Z,33.73
2022-08-19T07:29:14.491Z,22.07
2022-08-19T07:31:43.471Z,25.47
2022-08-19T07:34:14.284Z,22.20
2022-08-19T07:36:43.863Z,19.87
2022-08-19T07:39:16.139Z,21.20
2022-08-19T07:41:45.294Z,20.90
2022-08-19T07:44:13.891Z,24.67
2022-08-19T07:46:45.906Z,21.60
2022-08-19T07:49:18.348Z,23.13
2022-08-19T07:51:47.522Z,19.47
2022-08-19T07:54:17.473Z,18.97
2022-08-19T07:56:45.599Z,22.33
2022-08-19T07:59:13.783Z,22.97
2022-08-19T08:01:42.140Z,20.03
2022-08-19T08:04:28.111Z,22.83
2022-08-19T08:07:14.514Z,19.80
2022-08-19T08:09:49.522Z,27.83
2022-08-19T08:12:33.527Z,23.67
2022-08-19T08:15:05.389Z,22.10
2022-08-19T08:17:49.121Z,21.60
2022-08-19T08:20:20.602Z,22.20
2022-08-19T08:23:07.557Z,20.47
2022-08-19T08:25:38.720Z,22.63
2022-08-19T08:28:08.375Z,23.50
2022-08-19T08:30:42.418Z,22.57
2022-08-19T08:33:13.910Z,23.83
2022-08-19T08:35:43.815Z,23.77
2022-08-19T08:38:11.996Z,27.83
2022-08-19T08:40:49.552Z,23.13
2022-08-19T08:43:25.464Z,21.23
2022-08-19T08:45:58.792Z,25.30
2022-08-19T08:48:36.599Z,26.87
2022-08-19T08:51:09.543Z,23.47
2022-08-19T08:53:41.798Z,21.37
2022-08-19T08:56:14.043Z,23.00
2022-08-19T08:58:54.808Z,21.50
2022-08-19T09:01:23.373Z,18.67
2022-08-19T09:03:52.958Z,18.43
2022-08-19T09:06:31.283Z,18.43
2022-08-19T09:09:11.854Z,20.40
2022-08-19T09:12:07.143Z,22.57
2022-08-19T09:14:50.848Z,18.30
2022-08-19T09:17:21.982Z,21.23
2022-08-19T09:19:56.214Z,21.50
2022-08-19T09:22:27.715Z,19.33
2022-08-19T09:24:56.932Z,20.63
2022-08-19T09:27:41.918Z,20.47
2022-08-19T09:30:25.247Z,16.27
2022-08-19T09:32:54.606Z,17.43
2022-08-19T09:35:24.663Z,12.70
2022-08-19T09:37:59.554Z,14.07
2022-08-19T09:40:30.030Z,15.50
2022-08-19T09:43:12.921Z,12.90
2022-08-19T09:45:42.338Z,16.27
2022-08-19T09:48:11.893Z,14.17
2022-08-19T09:50:51.511Z,14.27
2022-08-19T09:53:23.421Z,11.43
2022-08-19T09:55:53.920Z,10.43
2022-08-19T09:58:27.616Z,15.00
2022-08-19T10:00:56.033Z,11.27
2022-08-19T10:03:25.545Z,12.33
2022-08-19T10:06:00.511Z,12.30
2022-08-19T10:08:31.622Z,8.60
2022-08-19T10:11:00.079Z,14.20
2022-08-19T10:13:50.983Z,7.90
2022-08-19T10:16:23.221Z,8.77
2022-08-19T10:18:59.080Z,8.70
2022-08-19T10:21:29.023Z,8.13
2022-08-19T10:24:02.607Z,9.17
2022-08-19T10:26:37.071Z,11.07
2022-08-19T10:29:09.479Z,9.83
2022-08-19T10:32:00.448Z,8.50
2022-08-19T10:34:28.353Z,7.93
2022-08-19T10:37:01.223Z,7.70
2022-08-19T10:39:32.651Z,6.83
2022-08-19T10:42:11.390Z,7.40
2022-08-19T10:44:41.219Z,8.17
2022-08-19T10:47:17.693Z,8.77
2022-08-19T10:50:12.159Z,7.53
2022-08-19T10:52:49.750Z,7.40
2022-08-19T10:55:37.867Z,8.70
2022-08-19T10:58:06.746Z,5.77
2022-08-19T11:00:41.101Z,8.07
2022-08-19T11:03:09.671Z,10.17
2022-08-19T11:05:40.010Z,9.80
2022-08-19T11:08:23.385Z,9.10
2022-08-19T11:11:00.080Z,5.80
2022-08-19T11:13:28.518Z,11.00
2022-08-19T11:16:07.418Z,5.80
2022-08-19T11:18:38.043Z,5.97
2022-08-19T11:21:11.775Z,7.10
2022-08-19T11:23:39.932Z,5.07
2022-08-19T11:26:08.418Z,6.47
2022-08-19T11:28:36.984Z,6.03
2022-08-19T11:31:06.762Z,6.07
2022-08-19T11:33:35.276Z,6.70
2022-08-19T11:36:03.486Z,5.73
2022-08-19T11:38:31.592Z,6.73
2022-08-19T11:41:01.430Z,6.33
2022-08-19T11:43:32.400Z,6.67
2022-08-19T11:46:08.674Z,6.93
2022-08-19T11:48:37.229Z,6.20
2022-08-19T11:51:08.164Z,6.40
2022-08-19T11:53:36.889Z,5.90
2022-08-19T11:56:06.831Z,4.53
2022-08-19T11:58:35.078Z,8.50
2022-08-19T12:01:03.366Z,6.83
2022-08-19T12:03:33.180Z,6.90
2022-08-19T12:06:04.933Z,20.17
2022-08-19T12:08:33.259Z,6.30
2022-08-19T12:11:02.668Z,9.37
2022-08-19T12:13:31.360Z,5.50
2022-08-19T12:16:00.379Z,6.40
2022-08-19T12:18:28.595Z,8.63
2022-08-19T12:20:58.046Z,12.43
2022-08-19T12:23:26.197Z,9.13
2022-08-19T12:25:55.484Z,7.00
2022-08-19T12:28:25.498Z,6.83
2022-08-19T12:30:53.795Z,6.27
2022-08-19T12:33:25.282Z,9.70
2022-08-19T12:35:53.634Z,8.60
2022-08-19T12:38:25.215Z,6.83
2022-08-19T12:40:57.111Z,8.40
2022-08-19T12:43:28.168Z,10.80
2022-08-19T12:45:56.504Z,7.50
2022-08-19T12:48:34.549Z,5.90
2022-08-19T12:51:08.536Z,5.40
2022-08-19T12:53:39.280Z,5.80
2022-08-19T12:56:12.278Z,6.97
2022-08-19T12:58:42.695Z,5.90
2022-08-19T13:01:20.303Z,6.00
2022-08-19T13:03:51.334Z,5.90
2022-08-19T13:06:20.234Z,5.73
2022-08-19T13:08:49.980Z,5.90
2022-08-19T13:11:20.397Z,7.80
2022-08-19T13:13:51.825Z,5.63
2022-08-19T13:16:22.823Z,5.30
2022-08-19T13:18:52.794Z,5.00
2022-08-19T13:21:22.598Z,5.83
2022-08-19T13:23:53.296Z,5.43
2022-08-19T13:26:21.888Z,7.20
2022-08-19T13:29:07.326Z,6.13
2022-08-19T13:31:54.643Z,6.10
2022-08-19T13:34:31.211Z,5.60
2022-08-19T13:37:00.022Z,4.70
2022-08-19T13:39:29.642Z,6.33
2022-08-19T13:41:58.505Z,6.30
2022-08-19T13:44:27.278Z,7.90
2022-08-19T13:46:55.314Z,6.80
2022-08-19T13:49:24.086Z,8.93
2022-08-19T13:51:52.383Z,6.97
2022-08-19T13:54:20.500Z,8.60
2022-08-19T13:56:50.027Z,7.53
2022-08-19T13:59:18.572Z,5.17
2022-08-19T14:01:46.642Z,6.30
2022-08-19T14:04:14.707Z,4.50
2022-08-19T14:06:42.739Z,5.30
2022-08-19T14:09:10.818Z,8.30
2022-08-19T14:11:39.207Z,6.40
2022-08-19T14:14:09.913Z,3.60
2022-08-19T14:16:40.160Z,5.30
2022-08-19T14:19:08.683Z,3.40
2022-08-19T14:21:41.413Z,3.30
2022-08-19T14:24:10.290Z,2.70
2022-08-19T14:26:39.361Z,3.00
2022-08-19T14:29:08.840Z,8.43
2022-08-19T14:31:37.233Z,3.40
2022-08-19T14:34:05.320Z,2.53
2022-08-19T14:36:39.072Z,3.30
2022-08-19T14:39:07.323Z,2.33
2022-08-19T14:41:35.440Z,1.87
2022-08-19T14:44:03.662Z,6.40
2022-08-19T14:46:33.293Z,1.20
2022-08-19T14:49:01.443Z,1.70
2022-08-19T14:51:37.512Z,1.93
2022-08-19T14:54:06.195Z,1.57
2022-08-19T14:56:34.248Z,4.00
2022-08-19T14:59:02.472Z,6.30
2022-08-19T15:01:32.100Z,1.60
2022-08-19T15:04:00.214Z,6.13
2022-08-19T15:06:29.912Z,1.40
2022-08-19T15:09:03.336Z,3.20
2022-08-19T15:11:33.360Z,2.30
2022-08-19T15:14:02.258Z,1.97
2022-08-19T15:16:31.784Z,1.40
2022-08-19T15:19:01.578Z,5.07
2022-08-19T15:21:31.362Z,1.10
2022-08-19T15:24:01.489Z,1.20
2022-08-19T15:26:32.910Z,2.40
2022-08-19T15:29:02.006Z,3.47
2022-08-19T15:31:32.903Z,2.07
2022-08-19T15:34:00.993Z,1.17
2022-08-19T15:36:29.177Z,1.97
2022-08-19T15:38:57.957Z,0.90
2022-08-19T15:41:30.496Z,6.17
2022-08-19T15:44:01.102Z,1.57
2022-08-19T15:46:31.438Z,1.20
2022-08-19T15:49:01.198Z,0.90
2022-08-19T15:51:31.271Z,2.30
2022-08-19T15:54:00.410Z,1.03
2022-08-19T15:56:58.171Z,2.20
2022-08-19T15:59:47.398Z,1.00
2022-08-19T16:02:34.314Z,1.63
2022-08-19T16:05:22.003Z,1.53
2022-08-19T16:07:50.962Z,3.07
2022-08-19T16:10:27.431Z,2.60
2022-08-19T16:12:56.889Z,2.63
2022-08-19T16:15:25.604Z,1.17
2022-08-19T16:17:54.747Z,1.90
2022-08-19T16:20:27.840Z,3.53
2022-08-19T16:22:58.108Z,3.17
2022-08-19T16:25:28.866Z,2.73
2022-08-19T16:28:07.482Z,6.07
2022-08-19T16:30:38.051Z,1.27
2022-08-19T16:33:06.569Z,1.13
2022-08-19T16:35:36.079Z,3.33
2022-08-19T16:38:04.583Z,1.50
2022-08-19T16:40:32.640Z,1.50
2022-08-19T16:43:02.917Z,1.10
2022-08-19T16:45:31.572Z,1.40
2022-08-19T16:47:59.644Z,2.30
2022-08-19T16:50:47.842Z,0.70
2022-08-19T16:53:18.470Z,2.90
2022-08-19T16:55:51.206Z,1.00
2022-08-19T16:58:19.569Z,1.00
2022-08-19T17:00:49.847Z,1.30
2022-08-19T17:03:19.719Z,1.00
2022-08-19T17:06:03.744Z,2.60
2022-08-19T17:08:34.175Z,0.87
2022-08-19T17:11:17.707Z,1.57
2022-08-19T17:13:47.858Z,0.90
2022-08-19T17:16:16.865Z,1.33
2022-08-19T17:18:45.937Z,4.27
2022-08-19T17:21:14.268Z,3.10
2022-08-19T17:23:44.309Z,2.03
2022-08-19T17:26:17.238Z,1.77
2022-08-19T17:28:48.997Z,8.73
2022-08-19T17:31:17.801Z,1.07
2022-08-19T17:33:48.111Z,2.67
2022-08-19T17:36:16.966Z,1.20
2022-08-19T17:38:46.700Z,0.80
2022-08-19T17:41:15.008Z,1.30
2022-08-19T17:43:44.109Z,1.00
2022-08-19T17:46:18.208Z,1.30
2022-08-19T17:48:51.911Z,1.23
2022-08-19T17:51:23.760Z,3.37
2022-08-19T17:53:55.163Z,4.03
2022-08-19T17:56:23.792Z,1.33
2022-08-19T17:59:00.720Z,2.80
2022-08-19T18:01:51.929Z,3.70
2022-08-19T18:04:19.687Z,2.07
2022-08-19T18:06:53.168Z,1.33
2022-08-19T18:09:24.864Z,1.73
2022-08-19T18:11:54.402Z,3.77
2022-08-19T18:14:32.092Z,2.07
2022-08-19T18:17:02.792Z,1.20
2022-08-19T18:19:41.626Z,1.20
2022-08-19T18:22:13.399Z,1.10
2022-08-19T18:24:45.997Z,2.80
2022-08-19T18:27:14.578Z,2.70
2022-08-19T18:29:43.266Z,1.93
2022-08-19T18:32:13.561Z,1.20
2022-08-19T18:34:43.338Z,1.40
2022-08-19T18:37:11.811Z,1.20
2022-08-19T18:39:57.645Z,1.00
2022-08-19T18:42:44.453Z,2.13
2022-08-19T18:45:30.653Z,3.53
2022-08-19T18:48:24.249Z,1.30
2022-08-19T18:50:57.364Z,1.50
2022-08-19T18:53:25.731Z,1.33
2022-08-19T18:55:55.499Z,1.60
2022-08-19T18:58:33.653Z,2.10
2022-08-19T19:01:11.291Z,4.17
2022-08-19T19:03:43.555Z,2.33
2022-08-19T19:06:11.774Z,1.47
2022-08-19T19:08:40.878Z,3.63
2022-08-19T19:11:09.648Z,1.30
2022-08-19T19:13:40.945Z,1.57
2022-08-19T19:16:11.401Z,1.33
2022-08-19T19:18:39.747Z,1.30
2022-08-19T19:21:08.877Z,1.30
2022-08-19T19:23:40.853Z,1.53
2022-08-19T19:26:10.428Z,1.33
2022-08-19T19:28:45.707Z,1.77
2022-08-19T19:31:16.467Z,2.53
2022-08-19T19:33:45.861Z,2.13
2022-08-19T19:36:14.280Z,1.50
2022-08-19T19:38:48.334Z,1.40
2022-08-19T19:41:18.771Z,1.83
2022-08-19T19:43:56.622Z,2.37
2022-08-19T19:46:33.695Z,1.70
2022-08-19T19:49:01.783Z,2.40
2022-08-19T19:51:30.450Z,4.93
2022-08-19T19:54:06.155Z,1.30
2022-08-19T19:56:35.190Z,1.70
2022-08-19T19:59:04.914Z,1.40
2022-08-19T20:01:33.086Z,4.13
2022-08-19T20:04:02.083Z,1.93
2022-08-19T20:06:30.762Z,1.93
2022-08-19T20:09:10.735Z,1.70
2022-08-19T20:11:42.222Z,2.03
2022-08-19T20:14:14.529Z,1.40
2022-08-19T20:16:45.883Z,3.77
2022-08-19T20:19:19.355Z,1.67
2022-08-19T20:21:51.312Z,2.83
2022-08-19T20:24:22.426Z,1.50
2022-08-19T20:26:53.485Z,1.53
2022-08-19T20:29:38.870Z,1.30
2022-08-19T20:32:10.858Z,1.87
2022-08-19T20:34:39.366Z,1.80
2022-08-19T20:37:09.011Z,1.63
2022-08-19T20:39:37.309Z,1.90
2022-08-19T20:42:05.746Z,1.90
2022-08-19T20:44:35.383Z,4.00
2022-08-19T20:47:04.203Z,2.00
2022-08-19T20:49:32.842Z,2.03
2022-08-19T20:52:01.013Z,2.73
2022-08-19T20:54:29.522Z,2.73
2022-08-19T20:56:58.124Z,2.17
2022-08-19T20:59:26.987Z,2.27
2022-08-19T21:01:57.387Z,2.70
2022-08-19T21:04:25.418Z,3.70
2022-08-19T21:06:54.655Z,2.30
2022-08-19T21:09:22.860Z,2.07
2022-08-19T21:11:51.197Z,4.30
2022-08-19T21:14:19.439Z,3.73
2022-08-19T21:16:47.625Z,2.20
2022-08-19T21:19:19.884Z,1.90
2022-08-19T21:21:50.382Z,4.13
2022-08-19T21:24:18.493Z,2.40
2022-08-19T21:26:51.083Z,2.00
2022-08-19T21:29:19.609Z,2.10
2022-08-19T21:31:48.930Z,2.07
2022-08-19T21:34:18.590Z,2.10
2022-08-19T21:36:47.037Z,1.50
2022-08-19T21:39:15.070Z,2.53
2022-08-19T21:41:43.794Z,2.23
2022-08-19T21:44:12.014Z,4.27
2022-08-19T21:46:40.050Z,2.30
2022-08-19T21:49:08.038Z,2.07
2022-08-19T21:51:37.437Z,3.13
2022-08-19T21:54:05.518Z,2.03
2022-08-19T21:56:33.541Z,2.30
2022-08-19T21:59:01.539Z,2.03
2022-08-19T22:01:30.187Z,4.33
2022-08-19T22:03:58.265Z,2.17
2022-08-19T22:06:26.661Z,3.57
2022-08-19T22:08:56.314Z,1.10
2022-08-19T22:11:24.466Z,1.67
2022-08-19T22:13:53.700Z,1.00
2022-08-19T22:16:22.378Z,1.40
2022-08-19T22:18:51.627Z,2.90
2022-08-19T22:21:40.587Z,1.37
2022-08-19T22:24:10.821Z,1.43
2022-08-19T22:26:38.855Z,1.20
2022-08-19T22:29:07.418Z,2.03
2022-08-19T22:31:36.429Z,1.50
2022-08-19T22:34:04.945Z,1.83
2022-08-19T22:36:33.467Z,2.43
2022-08-19T22:39:01.508Z,1.10
2022-08-19T22:41:32.638Z,1.27
2022-08-19T22:44:01.785Z,1.10
2022-08-19T22:46:33.522Z,1.20
2022-08-19T22:49:01.738Z,1.60
2022-08-19T22:51:47.753Z,1.13
2022-08-19T22:54:16.495Z,1.20
2022-08-19T22:56:46.102Z,1.33
2022-08-19T22:59:14.158Z,1.40
2022-08-19T23:01:42.694Z,5.63
2022-08-19T23:04:11.138Z,1.47
2022-08-19T23:06:41.990Z,1.90
2022-08-19T23:09:11.301Z,1.40
2022-08-19T23:11:46.915Z,1.20
2022-08-19T23:14:17.475Z,5.13
2022-08-19T23:16:50.766Z,1.27
2022-08-19T23:19:19.694Z,1.20
2022-08-19T23:21:47.928Z,1.40
2022-08-19T23:24:16.063Z,1.30
2022-08-19T23:27:04.298Z,1.43
2022-08-19T23:29:51.224Z,1.57
2022-08-19T23:32:20.795Z,2.50
2022-08-19T23:34:49.166Z,1.30
2022-08-19T23:37:17.243Z,1.40
2022-08-19T23:39:45.476Z,3.63
2022-08-19T23:42:14.202Z,1.77
2022-08-19T23:44:51.078Z,1.20
2022-08-19T23:47:20.758Z,1.90
2022-08-19T23:49:48.912Z,1.80
2022-08-19T23:52:17.005Z,2.80
2022-08-19T23:54:45.099Z,1.83
2022-08-19T23:57:14.444Z,2.80
2022-08-19T23:59:46.001Z,2.20
